createdAt,value
2022-11-20T00:01:34.758Z,15.40
2022-11-20T00:04:03.041Z,15.30
2022-11-20T00:06:31.440Z,14.60
2022-11-20T00:09:02.385Z,12.90
2022-11-20T00:11:32.436Z,12.60
2022-11-20T00:14:02.706Z,11.90
2022-11-20T00:16:33.842Z,11.70
2022-11-20T00:19:02.318Z,12.10
2022-11-20T00:21:31.357Z,12.30
2022-11-20T00:23:59.713Z,12.50
2022-11-20T00:26:29.348Z,11.60
2022-11-20T00:29:00.441Z,13.50
2022-11-20T00:31:29.962Z,13.30
2022-11-20T00:33:58.103Z,13.10
2022-11-20T00:36:28.870Z,12.60
2022-11-20T00:38:59.167Z,14.30
2022-11-20T00:41:29.654Z,12.90
2022-11-20T00:43:58.341Z,14.10
2022-11-20T00:46:28.798Z,12.70
2022-11-20T00:48:57.130Z,11.90
2022-11-20T00:51:28.444Z,12.30
2022-11-20T00:53:58.591Z,11.70
2022-11-20T00:56:27.065Z,10.80
2022-11-20T00:58:55.590Z,11.20
2022-11-20T01:01:26.896Z,12.00
2022-11-20T01:03:58.364Z,11.20
2022-11-20T01:06:36.721Z,10.60
2022-11-20T01:09:11.709Z,11.00
2022-11-20T01:11:45.320Z,10.40
2022-11-20T01:14:18.103Z,10.30
2022-11-20T01:16:50.223Z,10.80
2022-11-20T01:19:22.286Z,9.00
2022-11-20T01:21:54.195Z,10.20
2022-11-20T01:24:23.689Z,11.00
2022-11-20T01:26:52.500Z,10.00
2022-11-20T01:29:25.889Z,10.40
2022-11-20T01:31:54.136Z,13.30
2022-11-20T01:34:23.569Z,13.40
2022-11-20T01:36:53.855Z,11.50
2022-11-20T01:39:27.313Z,12.90
2022-11-20T01:42:15.698Z,11.70
2022-11-20T01:45:00.448Z,11.60
2022-11-20T01:47:39.640Z,12.10
2022-11-20T01:50:24.249Z,17.50
2022-11-20T01:53:03.134Z,13.80
2022-11-20T01:55:37.722Z,17.90
2022-11-20T01:58:06.656Z,17.50
2022-11-20T02:00:34.831Z,21.30
2022-11-20T02:03:09.867Z,21.50
2022-11-20T02:05:52.126Z,18.00
2022-11-20T02:08:21.544Z,19.50
2022-11-20T02:10:49.724Z,17.80
2022-11-20T02:13:36.707Z,17.90
2022-11-20T02:16:09.611Z,16.80
2022-11-20T02:18:39.462Z,16.30
2022-11-20T02:21:26.741Z,16.40
2022-11-20T02:24:13.530Z,16.00
2022-11-20T02:26:52.315Z,16.60
2022-11-20T02:29:53.348Z,15.70
2022-11-20T02:32:26.777Z,15.20
2022-11-20T02:34:55.757Z,16.00
2022-11-20T02:37:28.122Z,16.30
2022-11-20T02:39:56.278Z,15.80
2022-11-20T02:42:24.343Z,17.70
2022-11-20T02:44:52.633Z,20.00
2022-11-20T02:47:20.746Z,19.00
2022-11-20T02:49:48.842Z,17.70
2022-11-20T02:52:16.980Z,15.30
2022-11-20T02:54:45.138Z,16.50
2022-11-20T02:57:13.264Z,16.30
2022-11-20T02:59:41.400Z,15.60
2022-11-20T03:02:09.534Z,15.60
2022-11-20T03:04:37.685Z,14.80
2022-11-20T03:07:05.865Z,16.20
2022-11-20T03:09:34.023Z,16.00
2022-11-20T03:12:02.173Z,16.50
2022-11-20T03:14:30.335Z,17.20
2022-11-20T03:16:58.533Z,15.20
2022-11-20T03:19:26.625Z,14.90
2022-11-20T03:21:54.761Z,15.10
2022-11-20T03:24:22.843Z,14.00
2022-11-20T03:26:50.944Z,15.00
2022-11-20T03:29:19.412Z,13.30
2022-11-20T03:31:47.927Z,13.70
2022-11-20T03:34:16.112Z,11.40
2022-11-20T03:36:44.737Z,11.50
2022-11-20T03:39:12.974Z,11.30
2022-11-20T03:41:43.138Z,10.10
2022-11-20T03:44:13.151Z,8.90
2022-11-20T03:57:42.560Z,6.80
2022-11-20T04:00:11.620Z,6.60
2022-11-20T04:02:39.767Z,6.70
2022-11-20T04:05:08.227Z,5.80
2022-11-20T04:07:36.532Z,5.50
2022-11-20T04:10:05.303Z,4.60
2022-11-20T04:12:34.739Z,3.90
2022-11-20T04:15:03.044Z,3.80
2022-11-20T04:17:31.188Z,3.10
2022-11-20T04:19:59.297Z,3.60
2022-11-20T04:22:27.430Z,3.00
2022-11-20T04:24:55.538Z,3.60
2022-11-20T04:27:23.695Z,4.30
2022-11-20T04:29:51.850Z,4.00
2022-11-20T04:32:19.980Z,4.30
2022-11-20T04:34:48.111Z,3.90
2022-11-20T04:37:16.190Z,3.60
2022-11-20T04:39:44.670Z,4.10
2022-11-20T04:42:31.340Z,3.60
2022-11-20T04:44:59.571Z,4.20
2022-11-20T04:47:27.828Z,3.90
2022-11-20T04:49:56.034Z,3.90
2022-11-20T04:52:24.220Z,3.80
2022-11-20T04:54:53.950Z,3.20
2022-11-20T04:57:22.269Z,3.10
2022-11-20T04:59:50.838Z,3.30
2022-11-20T05:02:19.017Z,3.10
2022-11-20T05:04:47.211Z,2.30
2022-11-20T05:07:15.408Z,1.90
2022-11-20T05:09:43.670Z,1.90
2022-11-20T05:12:11.894Z,1.90
2022-11-20T05:14:39.988Z,1.60
2022-11-20T05:17:12.280Z,2.40
2022-11-20T05:19:40.418Z,2.20
2022-11-20T05:22:08.533Z,2.50
2022-11-20T05:24:36.620Z,2.50
2022-11-20T05:27:04.740Z,3.00
2022-11-20T05:29:32.883Z,3.10
2022-11-20T05:32:01.156Z,3.20
2022-11-20T05:34:29.316Z,3.20
2022-11-20T05:36:57.481Z,3.10
2022-11-20T05:39:25.662Z,3.80
2022-11-20T05:42:13.795Z,3.70
2022-11-20T05:44:41.900Z,3.90
2022-11-20T05:47:10.037Z,3.20
2022-11-20T05:49:38.136Z,3.60
2022-11-20T05:52:06.325Z,4.30
2022-11-20T05:54:34.501Z,4.40
2022-11-20T05:57:02.679Z,4.40
2022-11-20T05:59:30.829Z,4.10
2022-11-20T06:01:58.980Z,4.40
2022-11-20T06:04:27.877Z,3.70
2022-11-20T06:06:56.008Z,3.40
2022-11-20T06:09:24.158Z,4.00
2022-11-20T06:11:52.344Z,4.30
2022-11-20T06:14:20.470Z,4.40
2022-11-20T06:16:48.603Z,3.90
2022-11-20T06:19:16.821Z,3.50
2022-11-20T06:21:44.999Z,4.10
2022-11-20T06:24:13.090Z,4.20
2022-11-20T06:26:41.244Z,4.70
2022-11-20T06:29:09.479Z,4.00
2022-11-20T06:31:38.892Z,5.10
2022-11-20T06:34:07.874Z,4.00
2022-11-20T06:36:36.145Z,3.30
2022-11-20T06:39:04.706Z,3.70
2022-11-20T06:41:32.810Z,4.00
2022-11-20T06:44:00.970Z,4.50
2022-11-20T06:46:29.113Z,4.40
2022-11-20T06:48:57.245Z,3.60
2022-11-20T06:51:26.266Z,3.50
2022-11-20T06:53:54.514Z,3.20
2022-11-20T06:56:22.654Z,3.70
2022-11-20T06:58:50.936Z,3.30
2022-11-20T07:01:19.141Z,3.40
2022-11-20T07:03:54.396Z,3.70
2022-11-20T07:06:22.829Z,3.70
2022-11-20T07:08:53.958Z,3.30
2022-11-20T07:11:22.263Z,3.40
2022-11-20T07:13:50.741Z,3.50
2022-11-20T07:16:19.254Z,3.10
2022-11-20T07:18:50.499Z,3.40
2022-11-20T07:21:19.082Z,4.10
2022-11-20T07:23:47.392Z,5.60
2022-11-20T07:26:15.500Z,3.90
2022-11-20T07:28:46.427Z,4.40
2022-11-20T07:31:18.753Z,4.50
2022-11-20T07:33:47.785Z,3.70
2022-11-20T07:36:16.071Z,3.60
2022-11-20T07:38:44.174Z,4.60
2022-11-20T07:41:12.304Z,4.20
2022-11-20T07:43:41.560Z,4.00
2022-11-20T07:46:10.135Z,4.90
2022-11-20T07:48:38.371Z,4.60
2022-11-20T07:51:06.751Z,4.20
2022-11-20T07:53:34.867Z,4.40
2022-11-20T07:56:04.343Z,4.20
2022-11-20T07:58:34.146Z,4.40
2022-11-20T08:01:09.469Z,4.80
2022-11-20T08:03:40.987Z,5.10
2022-11-20T08:06:09.812Z,4.90
2022-11-20T08:08:42.862Z,5.40
2022-11-20T08:11:29.992Z,5.70
2022-11-20T08:14:13.472Z,5.60
2022-11-20T08:19:12.158Z,5.00
2022-11-20T08:21:41.348Z,5.60
2022-11-20T08:24:10.354Z,6.30
2022-11-20T08:26:40.246Z,6.00
2022-11-20T08:29:08.660Z,6.50
2022-11-20T08:31:36.927Z,6.20
2022-11-20T08:34:25.040Z,7.40
2022-11-20T08:36:53.139Z,7.90
2022-11-20T08:39:21.754Z,8.60
2022-11-20T08:41:50.152Z,7.90
2022-11-20T08:44:18.583Z,10.20
2022-11-20T08:46:48.178Z,10.50
2022-11-20T08:49:16.588Z,10.50
2022-11-20T08:51:44.729Z,9.30
2022-11-20T08:54:12.885Z,9.90
2022-11-20T08:56:41.034Z,9.90
2022-11-20T08:59:43.856Z,9.20
2022-11-20T09:01:57.321Z,9.50
2022-11-20T09:04:25.494Z,8.80
2022-11-20T09:06:54.153Z,8.70
2022-11-20T09:09:22.864Z,9.10
2022-11-20T09:11:51.330Z,8.20
2022-11-20T09:14:19.455Z,8.60
2022-11-20T09:16:47.715Z,8.50
2022-11-20T09:22:04.268Z,9.80
2022-11-20T09:24:32.818Z,10.80
2022-11-20T09:27:04.579Z,9.40
2022-11-20T09:29:33.090Z,8.80
2022-11-20T09:32:01.182Z,8.20
2022-11-20T09:34:29.371Z,9.70
2022-11-20T09:37:00.243Z,11.50
2022-11-20T09:39:31.362Z,10.20
2022-11-20T09:42:33.488Z,8.60
2022-11-20T09:45:45.218Z,7.60
2022-11-20T09:48:48.833Z,6.70
2022-11-20T09:51:52.676Z,6.70
2022-11-20T09:56:59.279Z,7.50
2022-11-20T10:00:01.956Z,8.40
2022-11-20T10:03:00.737Z,6.50
2022-11-20T10:05:39.020Z,5.60
2022-11-20T10:08:51.866Z,6.60
2022-11-20T10:11:49.453Z,7.10
2022-11-20T10:14:21.490Z,5.50
2022-11-20T10:17:04.540Z,5.30
2022-11-20T10:20:26.571Z,5.60
2022-11-20T10:23:25.656Z,4.80
2022-11-20T10:26:03.357Z,6.00
2022-11-20T10:29:01.431Z,5.00
2022-11-20T10:31:38.622Z,4.60
2022-11-20T10:34:24.398Z,4.80
2022-11-20T10:37:10.822Z,4.40
2022-11-20T10:39:58.862Z,4.40
2022-11-20T10:42:52.007Z,4.40
2022-11-20T10:45:51.421Z,7.60
2022-11-20T10:48:28.108Z,6.60
2022-11-20T10:51:39.580Z,4.60
2022-11-20T10:54:37.706Z,3.40
2022-11-20T10:57:48.099Z,5.10
2022-11-20T11:00:18.239Z,3.50
2022-11-20T11:02:56.124Z,3.00
2022-11-20T11:05:40.296Z,3.20
2022-11-20T11:08:20.298Z,3.50
2022-11-20T11:11:02.676Z,3.30
2022-11-20T11:13:31.971Z,3.00
2022-11-20T11:16:00.101Z,3.10
2022-11-20T11:18:30.960Z,2.90
2022-11-20T11:21:05.237Z,2.90
2022-11-20T11:23:43.957Z,2.90
2022-11-20T11:26:25.647Z,3.00
2022-11-20T11:29:04.427Z,3.40
2022-11-20T11:31:36.399Z,3.30
2022-11-20T11:34:17.000Z,3.30
2022-11-20T11:36:58.722Z,3.70
2022-11-20T11:39:30.014Z,3.20
2022-11-20T11:42:01.432Z,3.30
2022-11-20T11:44:54.097Z,4.00
2022-11-20T11:47:32.021Z,4.70
2022-11-20T11:50:14.525Z,4.10
2022-11-20T11:53:16.050Z,5.00
2022-11-20T11:56:06.812Z,5.10
2022-11-20T11:58:51.419Z,3.70
2022-11-20T12:01:32.826Z,3.80
2022-11-20T12:04:22.736Z,3.50
2022-11-20T12:18:17.902Z,2.80
2022-11-20T12:20:54.055Z,3.30
2022-11-20T12:23:42.816Z,3.20
2022-11-20T12:26:24.909Z,3.20
2022-11-20T12:29:07.330Z,3.30
2022-11-20T12:32:23.880Z,3.30
2022-11-20T12:35:11.666Z,2.60
2022-11-20T12:38:03.341Z,2.40
2022-11-20T12:40:39.501Z,2.40
2022-11-20T12:43:51.546Z,2.30
2022-11-20T12:46:45.869Z,1.80
2022-11-20T12:49:39.387Z,2.90
2022-11-20T12:52:28.127Z,3.00
2022-11-20T12:55:16.118Z,2.80
2022-11-20T12:58:11.281Z,3.80
2022-11-20T13:00:48.117Z,3.10
2022-11-20T13:03:48.885Z,1.90
2022-11-20T13:06:19.879Z,3.70
2022-11-20T13:08:59.015Z,4.60
2022-11-20T13:11:43.038Z,4.00
2022-11-20T13:14:50.685Z,3.10
2022-11-20T13:17:58.931Z,2.60
2022-11-20T13:20:26.770Z,2.30
2022-11-20T13:22:57.346Z,2.80
2022-11-20T13:25:36.057Z,2.90
2022-11-20T13:28:11.835Z,2.70
2022-11-20T13:30:51.723Z,2.70
2022-11-20T13:33:49.643Z,2.70
2022-11-20T13:36:29.235Z,2.10
2022-11-20T13:38:57.159Z,2.00
2022-11-20T13:41:39.716Z,2.10
2022-11-20T13:44:09.330Z,2.40
2022-11-20T13:46:45.565Z,2.90
2022-11-20T13:49:26.702Z,2.40
2022-11-20T13:52:56.254Z,2.90
2022-11-20T13:55:43.206Z,3.50
2022-11-20T13:58:21.767Z,2.50
2022-11-20T14:01:20.404Z,2.60
2022-11-20T14:04:05.734Z,2.30
2022-11-20T14:06:43.394Z,2.60
2022-11-20T14:09:32.065Z,3.30
2022-11-20T14:11:59.491Z,3.00
2022-11-20T14:14:29.239Z,3.30
2022-11-20T14:17:09.187Z,3.00
2022-11-20T14:19:37.790Z,3.30
2022-11-20T14:22:25.895Z,3.90
2022-11-20T14:25:12.688Z,4.00
2022-11-20T14:27:43.257Z,3.70
2022-11-20T14:30:20.006Z,4.00
2022-11-20T14:32:48.698Z,5.00
2022-11-20T14:35:25.326Z,5.20
2022-11-20T14:37:53.195Z,6.50
2022-11-20T14:40:36.153Z,7.50
2022-11-20T14:43:25.809Z,10.00
2022-11-20T14:46:00.755Z,15.50
2022-11-20T14:48:39.533Z,14.70
2022-11-20T14:51:06.353Z,25.40
2022-11-20T14:53:33.101Z,23.60
2022-11-20T14:56:02.149Z,19.80
2022-11-20T14:58:34.390Z,15.00
2022-11-20T15:01:05.589Z,11.50
2022-11-20T15:03:40.751Z,13.80
2022-11-20T15:06:12.058Z,14.30
2022-11-20T15:08:38.972Z,9.70
2022-11-20T15:11:26.335Z,10.60
2022-11-20T15:13:53.105Z,12.40
2022-11-20T15:16:23.494Z,9.30
2022-11-20T15:18:50.888Z,8.50
2022-11-20T15:21:21.151Z,8.70
2022-11-20T15:23:48.903Z,10.00
2022-11-20T15:26:28.352Z,9.40
2022-11-20T15:28:55.467Z,9.70
2022-11-20T15:31:23.832Z,6.80
2022-11-20T15:33:50.951Z,8.00
2022-11-20T15:36:17.875Z,8.30
2022-11-20T15:38:44.710Z,6.80
2022-11-20T15:41:11.763Z,6.40
2022-11-20T15:43:38.965Z,6.00
2022-11-20T15:46:15.912Z,6.10
2022-11-20T15:48:48.344Z,6.80
2022-11-20T15:51:30.005Z,6.70
2022-11-20T15:53:57.905Z,19.80
2022-11-20T15:56:25.238Z,20.60
2022-11-20T15:58:52.549Z,18.30
2022-11-20T16:01:22.637Z,10.70
2022-11-20T16:03:49.543Z,19.20
2022-11-20T16:06:19.145Z,12.40
2022-11-20T16:08:45.939Z,10.50
2022-11-20T16:11:15.585Z,8.80
2022-11-20T16:14:01.342Z,10.60
2022-11-20T16:16:33.432Z,14.50
2022-11-20T16:19:00.587Z,13.30
2022-11-20T16:21:31.470Z,11.80
2022-11-20T16:24:00.233Z,9.10
2022-11-20T16:26:27.954Z,8.60
2022-11-20T16:28:56.089Z,7.90
2022-11-20T16:31:23.260Z,8.60
2022-11-20T16:33:55.032Z,10.70
2022-11-20T16:36:24.951Z,10.10
2022-11-20T16:38:57.907Z,11.80
2022-11-20T16:43:58.445Z,13.20
2022-11-20T16:46:30.879Z,11.10
2022-11-20T16:49:10.637Z,14.20
2022-11-20T16:51:37.523Z,13.80
2022-11-20T16:54:07.336Z,18.80
2022-11-20T16:56:34.491Z,15.30
2022-11-20T16:59:02.054Z,12.00
2022-11-20T17:01:29.677Z,10.60
2022-11-20T17:04:03.747Z,10.40
2022-11-20T17:06:40.358Z,9.50
2022-11-20T17:09:10.441Z,10.60
2022-11-20T17:11:37.620Z,12.50
2022-11-20T17:14:06.736Z,12.80
2022-11-20T17:16:35.602Z,12.40
2022-11-20T17:19:04.515Z,10.70
2022-11-20T17:21:35.378Z,8.60
2022-11-20T17:24:05.379Z,6.90
2022-11-20T17:26:33.660Z,6.80
2022-11-20T17:29:09.488Z,5.80
2022-11-20T17:31:40.543Z,8.80
2022-11-20T17:34:10.715Z,5.60
2022-11-20T17:36:44.883Z,5.30
2022-11-20T17:39:16.723Z,5.60
2022-11-20T17:41:43.686Z,4.70
2022-11-20T17:44:11.632Z,5.50
2022-11-20T17:46:38.726Z,5.30
2022-11-20T17:49:05.635Z,6.20
2022-11-20T17:51:34.415Z,6.10
2022-11-20T17:54:06.632Z,7.50
2022-11-20T17:56:52.800Z,6.20
2022-11-20T17:59:19.925Z,5.40
2022-11-20T18:01:47.018Z,5.70
2022-11-20T18:04:14.036Z,6.30
2022-11-20T18:06:41.907Z,6.90
2022-11-20T18:09:09.261Z,5.50
2022-11-20T18:11:39.590Z,6.60
2022-11-20T18:14:31.587Z,7.00
2022-11-20T18:17:01.104Z,7.00
2022-11-20T18:19:37.579Z,8.40
2022-11-20T18:22:08.864Z,7.50
2022-11-20T18:24:36.766Z,6.90
2022-11-20T18:27:05.042Z,6.70
2022-11-20T18:29:32.168Z,7.00
2022-11-20T18:31:59.928Z,7.20
2022-11-20T18:34:27.350Z,7.10
2022-11-20T18:36:54.179Z,7.20
2022-11-20T18:39:21.283Z,7.70
2022-11-20T18:42:06.446Z,7.20
2022-11-20T18:44:53.164Z,6.50
2022-11-20T18:47:31.796Z,5.40
2022-11-20T18:50:00.788Z,6.00
2022-11-20T18:52:33.089Z,5.10
2022-11-20T18:55:01.867Z,5.20
2022-11-20T18:57:29.678Z,6.60
2022-11-20T19:00:06.391Z,7.80
2022-11-20T19:02:40.976Z,7.40
2022-11-20T19:07:35.770Z,6.30
2022-11-20T19:10:04.266Z,7.40
2022-11-20T19:12:31.362Z,7.00
2022-11-20T19:14:58.086Z,6.80
2022-11-20T19:17:24.845Z,6.50
2022-11-20T19:19:54.134Z,5.70
2022-11-20T19:22:21.168Z,5.60
2022-11-20T19:24:48.759Z,5.20
2022-11-20T19:27:15.527Z,9.40
2022-11-20T19:29:42.315Z,11.10
2022-11-20T19:32:10.758Z,7.90
2022-11-20T19:34:37.496Z,6.30
2022-11-20T19:37:04.527Z,7.60
2022-11-20T19:39:31.253Z,9.70
2022-11-20T19:41:58.036Z,13.60
2022-11-20T19:44:24.809Z,16.20
2022-11-20T19:46:51.755Z,10.70
2022-11-20T19:49:18.552Z,10.30
2022-11-20T19:51:48.189Z,11.60
2022-11-20T19:54:16.152Z,11.30
2022-11-20T19:56:44.616Z,8.90
2022-11-20T19:59:11.494Z,8.50
2022-11-20T20:01:38.917Z,8.80
2022-11-20T20:04:06.351Z,10.60
2022-11-20T20:06:37.538Z,12.00
2022-11-20T20:09:08.525Z,11.30
2022-11-20T20:11:36.710Z,10.00
2022-11-20T20:14:06.445Z,10.80
2022-11-20T20:16:34.538Z,9.90
2022-11-20T20:19:03.798Z,16.60
2022-11-20T20:21:32.785Z,14.70
2022-11-20T20:24:00.127Z,13.40
2022-11-20T20:26:29.512Z,14.50
2022-11-20T20:28:56.328Z,13.70
2022-11-20T20:31:26.557Z,18.30
2022-11-20T20:33:54.062Z,16.50
2022-11-20T20:36:22.732Z,16.90
2022-11-20T20:39:01.902Z,14.40
2022-11-20T20:41:28.836Z,10.30
2022-11-20T20:44:13.961Z,9.40
2022-11-20T20:46:41.158Z,8.00
2022-11-20T20:49:08.642Z,8.90
2022-11-20T20:51:35.872Z,8.20
2022-11-20T20:54:03.926Z,8.30
2022-11-20T20:56:30.853Z,7.70
2022-11-20T20:58:57.634Z,6.60
2022-11-20T21:01:27.847Z,7.40
2022-11-20T21:03:56.251Z,8.30
2022-11-20T21:06:23.764Z,7.10
2022-11-20T21:08:50.841Z,6.00
2022-11-20T21:11:19.703Z,4.20
2022-11-20T21:13:47.674Z,4.50
2022-11-20T21:16:16.652Z,4.80
2022-11-20T21:18:43.525Z,4.70
2022-11-20T21:21:32.079Z,4.90
2022-11-20T21:23:58.972Z,4.50
2022-11-20T21:26:25.970Z,4.70
2022-11-20T21:28:52.950Z,5.90
2022-11-20T21:31:24.124Z,5.80
2022-11-20T21:33:53.415Z,6.00
2022-11-20T21:36:23.592Z,5.00
2022-11-20T21:38:53.924Z,4.90
2022-11-20T21:41:22.264Z,4.80
2022-11-20T21:44:15.830Z,5.80
2022-11-20T21:46:43.497Z,5.80
2022-11-20T21:49:10.984Z,5.80
2022-11-20T21:51:38.134Z,5.40
2022-11-20T21:54:05.130Z,5.70
2022-11-20T21:56:31.911Z,6.00
2022-11-20T21:58:58.835Z,6.40
2022-11-20T22:01:28.589Z,5.00
2022-11-20T22:03:59.089Z,5.70
2022-11-20T22:06:31.770Z,5.70
2022-11-20T22:08:59.180Z,5.40
2022-11-20T22:11:26.471Z,5.70
2022-11-20T22:14:11.895Z,5.20
2022-11-20T22:16:38.855Z,5.70
2022-11-20T22:19:06.372Z,5.50
2022-11-20T22:21:34.183Z,5.90
2022-11-20T22:24:01.459Z,5.80
2022-11-20T22:26:38.654Z,5.90
2022-11-20T22:29:07.729Z,5.80
2022-11-20T22:31:34.514Z,5.20
2022-11-20T22:34:01.939Z,5.30
2022-11-20T22:36:30.926Z,5.70
2022-11-20T22:39:01.219Z,5.60
2022-11-20T22:41:28.795Z,6.00
2022-11-20T22:44:05.449Z,6.30
2022-11-20T22:46:35.443Z,6.40
2022-11-20T22:49:05.789Z,6.30
2022-11-20T22:51:39.915Z,6.90
2022-11-20T22:54:07.141Z,6.30
2022-11-20T22:56:34.489Z,7.10
2022-11-20T22:59:01.353Z,6.20
2022-11-20T23:01:34.229Z,6.80
2022-11-20T23:04:05.199Z,6.30
2022-11-20T23:06:35.783Z,6.00
2022-11-20T23:09:05.242Z,5.50
2022-11-20T23:11:32.373Z,5.60
2022-11-20T23:14:05.614Z,5.60
2022-11-20T23:16:33.869Z,6.20
2022-11-20T23:19:06.519Z,5.60
2022-11-20T23:21:35.887Z,5.50
2022-11-20T23:24:03.727Z,6.00
2022-11-20T23:26:34.487Z,6.40
2022-11-20T23:29:01.974Z,6.20
2022-11-20T23:31:30.979Z,6.00
2022-11-20T23:33:58.547Z,5.50
2022-11-20T23:36:26.164Z,5.60
2022-11-20T23:38:52.964Z,5.40
2022-11-20T23:41:19.747Z,4.70
2022-11-20T23:43:46.494Z,4.50
2022-11-20T23:46:16.523Z,4.60
2022-11-20T23:48:44.896Z,4.60
2022-11-20T23:51:12.741Z,4.30
2022-11-20T23:53:39.721Z,4.60
2022-11-20T23:56:25.830Z,4.30
2022-11-20T23:58:54.094Z,4.90
